createdAt,value
2022-12-08T04:46:02.423Z,20.12
2022-12-08T04:48:34.860Z,18.23
2022-12-08T04:51:06.912Z,15.30
2022-12-08T04:53:38.390Z,14.25
2022-12-08T04:56:15.548Z,15.10
2022-12-08T04:58:46.922Z,18.48
2022-12-08T05:01:16.436Z,17.75
2022-12-08T05:03:47.153Z,16.95
2022-12-08T05:06:17.730Z,15.10
2022-12-08T05:08:47.704Z,15.48
2022-12-08T05:11:17.554Z,19.73
2022-12-08T05:13:48.995Z,18.85
2022-12-08T05:16:18.904Z,20.85
2022-12-08T05:18:50.220Z,20.75
2022-12-08T05:21:20.765Z,18.62
2022-12-08T05:23:51.775Z,20.12
2022-12-08T05:26:23.565Z,20.77
2022-12-08T05:28:53.547Z,20.30
2022-12-08T05:31:23.955Z,20.10
2022-12-08T05:33:53.757Z,19.07
2022-12-08T05:36:24.910Z,19.10
2022-12-08T05:38:58.264Z,19.65
2022-12-08T05:41:29.050Z,19.62
2022-12-08T05:43:58.757Z,20.23
2022-12-08T05:46:29.458Z,21.80
2022-12-08T05:49:00.974Z,19.12
2022-12-08T05:51:31.179Z,22.17
2022-12-08T05:54:02.311Z,22.62
2022-12-08T05:56:32.443Z,20.82
2022-12-08T05:59:02.812Z,24.67
2022-12-08T06:01:33.392Z,20.35
2022-12-08T06:04:03.797Z,19.02
2022-12-08T06:06:36.417Z,22.42
2022-12-08T06:09:07.205Z,22.58
2022-12-08T06:11:38.349Z,19.82
2022-12-08T06:14:12.312Z,20.05
2022-12-08T06:16:42.062Z,32.45
2022-12-08T06:19:12.724Z,39.70
2022-12-08T06:21:42.377Z,26.23
2022-12-08T06:24:11.905Z,18.77
2022-12-08T06:26:41.430Z,19.82
2022-12-08T06:29:13.492Z,19.30
2022-12-08T06:31:44.642Z,21.97
2022-12-08T06:34:15.744Z,21.85
2022-12-08T06:36:47.548Z,20.70
2022-12-08T06:39:17.256Z,21.65
2022-12-08T06:42:07.239Z,23.50
2022-12-08T06:44:39.018Z,22.13
2022-12-08T06:47:09.461Z,22.67
2022-12-08T06:49:40.473Z,22.67
2022-12-08T06:52:11.550Z,32.78
2022-12-08T06:54:41.907Z,29.27
2022-12-08T06:57:11.895Z,45.03
2022-12-08T06:59:43.053Z,28.73
2022-12-08T07:02:15.655Z,20.25
2022-12-08T07:04:46.752Z,28.23
2022-12-08T07:07:17.185Z,21.95
2022-12-08T07:09:48.457Z,27.05
2022-12-08T07:12:19.359Z,16.97
2022-12-08T07:14:50.222Z,22.90
2022-12-08T07:17:20.853Z,17.57
2022-12-08T07:19:52.541Z,21.75
2022-12-08T07:22:22.323Z,24.15
2022-12-08T07:24:51.877Z,19.75
2022-12-08T07:27:23.085Z,19.82
2022-12-08T07:29:53.815Z,19.27
2022-12-08T07:32:24.481Z,22.82
2022-12-08T07:34:55.620Z,23.40
2022-12-08T07:37:26.582Z,22.73
2022-12-08T07:39:56.116Z,23.05
2022-12-08T07:42:26.546Z,26.10
2022-12-08T07:44:55.407Z,18.75
2022-12-08T07:47:25.114Z,18.87
2022-12-08T07:49:55.147Z,22.32
2022-12-08T07:52:25.308Z,22.00
2022-12-08T07:54:55.606Z,21.93
2022-12-08T07:57:26.232Z,20.75
2022-12-08T07:59:57.428Z,24.05
2022-12-08T08:02:29.912Z,25.35
2022-12-08T08:05:00.951Z,25.68
2022-12-08T08:07:32.536Z,22.45
2022-12-08T08:10:04.131Z,21.65
2022-12-08T08:12:34.030Z,19.25
2022-12-08T08:15:06.092Z,23.75
2022-12-08T08:17:37.099Z,24.05
2022-12-08T08:20:09.078Z,22.07
2022-12-08T08:22:39.863Z,21.82
2022-12-08T08:25:09.983Z,21.75
2022-12-08T08:27:40.638Z,23.85
2022-12-08T08:30:16.621Z,23.20
2022-12-08T08:32:43.880Z,21.23
2022-12-08T08:35:14.852Z,22.50
2022-12-08T08:37:48.786Z,22.52
2022-12-08T08:40:18.206Z,24.23
2022-12-08T08:42:48.392Z,26.95
2022-12-08T08:45:18.006Z,20.30
2022-12-08T08:47:48.901Z,20.10
2022-12-08T08:50:18.317Z,21.23
2022-12-08T08:52:48.357Z,24.02
2022-12-08T08:55:20.400Z,19.30
2022-12-08T08:57:49.921Z,21.45
2022-12-08T09:00:20.674Z,23.25
2022-12-08T09:02:50.584Z,20.32
2022-12-08T09:05:20.874Z,22.27
2022-12-08T09:07:50.566Z,26.73
2022-12-08T09:10:20.344Z,27.70
2022-12-08T09:12:50.334Z,28.70
2022-12-08T09:15:20.574Z,34.15
2022-12-08T09:17:52.648Z,27.90
2022-12-08T09:20:21.520Z,28.83
2022-12-08T09:22:50.510Z,33.23
2022-12-08T09:25:21.577Z,30.57
2022-12-08T09:27:52.735Z,26.15
2022-12-08T09:30:23.262Z,39.30
2022-12-08T09:32:53.423Z,35.28
2022-12-08T09:35:22.519Z,51.75
2022-12-08T09:37:52.730Z,35.23
2022-12-08T09:40:23.753Z,32.83
2022-12-08T09:43:04.955Z,26.23
2022-12-08T09:45:36.517Z,30.68
2022-12-08T09:48:14.522Z,29.12
2022-12-08T09:50:57.694Z,27.82
2022-12-08T09:53:46.884Z,30.25
2022-12-08T09:56:25.830Z,36.73
2022-12-08T10:02:03.271Z,39.08
2022-12-08T10:04:37.494Z,36.93
2022-12-08T14:09:46.197Z,59.50
2022-12-08T14:12:27.258Z,62.15
2022-12-08T14:15:05.787Z,59.80
2022-12-08T14:17:35.173Z,44.88
2022-12-08T14:20:33.856Z,46.33
2022-12-08T14:23:06.622Z,40.50
2022-12-08T14:25:36.592Z,34.05
2022-12-08T14:28:06.052Z,33.65
2022-12-08T14:30:37.164Z,36.23
2022-12-08T14:33:06.577Z,38.88
2022-12-08T14:35:38.187Z,38.13
2022-12-08T14:38:16.204Z,39.67
2022-12-08T14:41:06.129Z,36.23
2022-12-08T14:43:35.872Z,43.92
2022-12-08T14:46:23.029Z,46.68
2022-12-08T14:48:54.708Z,47.88
2022-12-08T14:51:30.528Z,58.45
2022-12-08T14:54:10.428Z,52.67
2022-12-08T14:56:56.138Z,42.65
2022-12-08T14:59:33.911Z,43.63
2022-12-08T15:02:22.245Z,44.77
2022-12-08T15:05:02.086Z,37.17
2022-12-08T15:07:49.544Z,40.70
2022-12-08T15:10:26.329Z,40.35
2022-12-08T15:13:11.371Z,42.88
2022-12-08T15:15:53.031Z,37.98
2022-12-08T15:18:37.815Z,38.33
2022-12-08T15:21:09.327Z,41.02
2022-12-08T15:23:54.195Z,41.83
2022-12-08T15:26:26.920Z,48.70
2022-12-08T15:28:58.738Z,44.63
2022-12-08T15:31:27.709Z,44.75
2022-12-08T15:33:59.995Z,46.48
2022-12-08T15:36:29.066Z,39.88
2022-12-08T15:38:59.277Z,33.70
2022-12-08T15:41:30.290Z,38.05
2022-12-08T15:44:04.628Z,30.90
2022-12-08T15:46:35.560Z,36.50
2022-12-08T15:49:08.040Z,39.35
2022-12-08T15:51:38.528Z,33.75
2022-12-08T15:54:07.774Z,32.85
2022-12-08T15:56:56.150Z,31.23
2022-12-08T15:59:18.205Z,30.52
2022-12-08T16:01:46.785Z,30.90
2022-12-08T16:05:18.320Z,26.27
2022-12-08T16:09:44.802Z,27.00
2022-12-08T16:13:40.402Z,31.75
2022-12-08T16:17:42.418Z,26.73
2022-12-08T16:20:15.549Z,25.75
2022-12-08T16:22:54.466Z,29.82
2022-12-08T16:25:20.576Z,29.12
2022-12-08T16:28:23.386Z,30.55
2022-12-08T16:30:20.099Z,28.90
2022-12-08T16:32:52.750Z,27.32
2022-12-08T16:38:07.881Z,32.42
2022-12-08T16:40:44.399Z,26.52
2022-12-08T16:43:13.352Z,20.12
2022-12-08T16:45:46.682Z,27.65
2022-12-08T16:48:16.679Z,25.80
2022-12-08T16:50:45.525Z,19.37
2022-12-08T16:53:15.307Z,21.05
2022-12-08T16:55:49.654Z,20.08
2022-12-08T16:58:25.364Z,25.35
2022-12-08T17:00:55.713Z,27.52
2022-12-08T17:04:07.198Z,22.90
2022-12-08T17:06:20.403Z,23.62
2022-12-08T17:08:51.819Z,22.82
2022-12-08T17:11:23.573Z,23.90
2022-12-08T17:13:53.668Z,22.25
2022-12-08T17:16:22.680Z,24.87
2022-12-08T17:18:53.620Z,32.00
2022-12-08T17:21:22.398Z,31.93
2022-12-08T17:23:52.531Z,30.70
2022-12-08T17:26:21.296Z,30.75
2022-12-08T17:29:06.074Z,30.68
2022-12-08T17:31:26.120Z,28.23
2022-12-08T17:33:52.569Z,25.30
2022-12-08T17:36:23.328Z,30.55
2022-12-08T17:38:55.465Z,23.50
2022-12-08T17:41:24.761Z,21.48
2022-12-08T17:43:53.926Z,18.30
2022-12-08T17:46:23.125Z,17.17
2022-12-08T17:48:52.182Z,20.08
2022-12-08T17:51:21.139Z,20.12
2022-12-08T17:53:49.951Z,21.05
2022-12-08T17:56:20.803Z,22.22
2022-12-08T17:58:54.334Z,22.05
2022-12-08T18:01:22.614Z,20.00
2022-12-08T18:03:52.193Z,22.75
2022-12-08T18:06:21.302Z,18.85
2022-12-08T18:08:50.315Z,23.98
2022-12-08T18:11:19.852Z,23.22
2022-12-08T18:13:49.551Z,23.92
2022-12-08T18:16:19.806Z,26.90
2022-12-08T18:18:48.861Z,28.23
2022-12-08T18:21:23.317Z,28.17
2022-12-08T18:23:48.320Z,27.55
2022-12-08T18:26:17.038Z,26.37
2022-12-08T18:28:45.976Z,30.85
2022-12-08T18:31:18.336Z,29.32
2022-12-08T18:33:47.556Z,26.65
2022-12-08T18:36:23.484Z,30.65
2022-12-08T18:38:52.849Z,32.30
2022-12-08T18:41:25.479Z,26.95
2022-12-08T18:43:54.854Z,27.30
2022-12-08T18:46:24.247Z,25.82
2022-12-08T18:48:53.045Z,28.70
2022-12-08T18:51:23.990Z,24.87
2022-12-08T18:53:53.423Z,30.05
2022-12-08T18:56:29.579Z,25.68
2022-12-08T18:59:03.503Z,19.40
2022-12-08T19:01:33.410Z,29.57
2022-12-08T19:06:39.039Z,27.13
